createdAt,value
2023-04-18T00:02:09.094Z,7.20
2023-04-18T00:04:57.096Z,7.10
2023-04-18T00:07:43.748Z,7.10
2023-04-18T00:10:30.247Z,7.20
2023-04-18T00:13:19.274Z,7.20
2023-04-18T00:16:07.740Z,7.10
2023-04-18T00:18:57.156Z,7.20
2023-04-18T00:21:44.726Z,7.20
2023-04-18T00:24:31.503Z,7.20
2023-04-18T00:27:19.321Z,7.20
2023-04-18T00:30:06.409Z,7.20
2023-04-18T00:32:52.803Z,7.20
2023-04-18T00:35:40.621Z,7.20
2023-04-18T00:38:26.998Z,7.20
2023-04-18T00:41:13.553Z,7.20
2023-04-18T00:43:59.914Z,7.20
2023-04-18T00:46:46.370Z,7.30
2023-04-18T00:49:33.266Z,7.30
2023-04-18T00:52:21.540Z,7.20
2023-04-18T00:55:09.401Z,7.20
2023-04-18T00:57:56.182Z,7.30
2023-04-18T01:00:43.066Z,7.30
2023-04-18T01:03:30.045Z,7.30
2023-04-18T01:06:17.241Z,7.30
2023-04-18T01:09:05.774Z,7.30
2023-04-18T01:11:52.557Z,7.30
2023-04-18T01:14:43.230Z,7.30
2023-04-18T01:17:29.999Z,7.30
2023-04-18T01:20:16.915Z,7.30
2023-04-18T01:23:04.805Z,7.30
2023-04-18T01:25:52.803Z,7.30
2023-04-18T01:28:39.653Z,7.30
2023-04-18T01:31:26.015Z,7.30
2023-04-18T01:34:12.626Z,7.40
2023-04-18T01:36:59.428Z,7.40
2023-04-18T01:39:46.100Z,7.40
2023-04-18T01:42:34.059Z,7.50
2023-04-18T01:45:22.287Z,7.40
2023-04-18T01:48:09.021Z,7.40
2023-04-18T01:50:55.605Z,7.40
2023-04-18T01:53:41.985Z,7.50
2023-04-18T01:56:28.390Z,7.50
2023-04-18T01:59:16.143Z,7.50
2023-04-18T02:02:02.741Z,7.60
2023-04-18T02:04:49.718Z,7.60
2023-04-18T02:07:36.221Z,7.60
2023-04-18T02:10:23.044Z,7.60
2023-04-18T02:13:09.847Z,7.60
2023-04-18T02:15:57.721Z,7.70
2023-04-18T02:18:45.324Z,7.60
2023-04-18T02:21:31.685Z,7.60
2023-04-18T02:24:18.384Z,7.70
2023-04-18T02:27:05.226Z,7.70
2023-04-18T02:29:52.064Z,7.70
2023-04-18T02:32:39.759Z,7.70
2023-04-18T02:35:27.012Z,7.70
2023-04-18T02:38:13.796Z,7.70
2023-04-18T02:41:00.529Z,7.70
2023-04-18T02:43:47.065Z,7.70
2023-04-18T02:46:33.853Z,7.70
2023-04-18T02:49:21.767Z,7.70
2023-04-18T02:52:08.359Z,7.80
2023-04-18T02:54:55.576Z,7.70
2023-04-18T02:57:42.418Z,7.70
2023-04-18T03:00:28.733Z,7.70
2023-04-18T03:03:15.654Z,7.70
2023-04-18T03:06:03.501Z,7.70
2023-04-18T03:08:50.148Z,7.80
2023-04-18T03:11:36.553Z,7.80
2023-04-18T03:14:23.295Z,7.70
2023-04-18T03:17:09.667Z,7.70
2023-04-18T03:19:56.233Z,7.70
2023-04-18T03:22:44.048Z,7.70
2023-04-18T03:25:30.893Z,7.70
2023-04-18T03:28:17.694Z,7.70
2023-04-18T03:31:04.260Z,7.70
2023-04-18T03:33:51.598Z,7.70
2023-04-18T03:36:38.299Z,7.70
2023-04-18T03:39:26.514Z,7.70
2023-04-18T03:42:13.151Z,7.80
2023-04-18T03:44:59.515Z,7.70
2023-04-18T03:47:46.143Z,7.80
2023-04-18T03:50:33.060Z,7.70
2023-04-18T03:53:19.430Z,7.70
2023-04-18T03:56:07.504Z,7.80
2023-04-18T03:58:54.022Z,7.70
2023-04-18T04:01:40.489Z,7.70
2023-04-18T04:04:27.125Z,7.60
2023-04-18T04:07:13.774Z,7.70
2023-04-18T04:10:00.418Z,7.60
2023-04-18T04:12:48.234Z,7.60
2023-04-18T04:15:35.163Z,7.60
2023-04-18T04:18:25.382Z,7.60
2023-04-18T04:21:12.224Z,7.60
2023-04-18T04:23:58.675Z,7.50
2023-04-18T04:26:45.216Z,7.60
2023-04-18T04:29:32.930Z,7.60
2023-04-18T04:32:20.248Z,7.60
2023-04-18T04:35:08.389Z,7.50
2023-04-18T04:37:54.811Z,7.60
2023-04-18T04:40:41.315Z,7.60
2023-04-18T04:43:28.736Z,7.60
2023-04-18T04:46:16.382Z,7.50
2023-04-18T04:49:02.633Z,7.50
2023-04-18T04:51:49.188Z,7.50
2023-04-18T04:54:35.862Z,7.50
2023-04-18T04:57:22.459Z,7.60
2023-04-18T05:00:10.225Z,7.60
2023-04-18T05:02:58.410Z,7.60
2023-04-18T05:05:45.116Z,7.50
2023-04-18T05:08:31.507Z,7.40
2023-04-18T05:11:18.864Z,7.50
2023-04-18T05:14:05.309Z,7.50
2023-04-18T05:16:51.985Z,7.40
2023-04-18T05:19:40.714Z,7.50
2023-04-18T05:22:27.595Z,7.50
2023-04-18T05:25:14.434Z,7.50
2023-04-18T05:28:04.453Z,7.50
2023-04-18T05:30:51.107Z,7.50
2023-04-18T05:33:37.603Z,7.60
2023-04-18T05:36:25.242Z,7.50
2023-04-18T05:39:12.146Z,7.70
2023-04-18T05:41:58.560Z,7.70
2023-04-18T05:44:44.869Z,7.90
2023-04-18T05:47:31.221Z,7.80
2023-04-18T05:50:17.582Z,7.80
2023-04-18T05:53:05.322Z,7.80
2023-04-18T05:55:51.978Z,7.90
2023-04-18T05:58:38.302Z,8.20
2023-04-18T06:01:24.845Z,8.30
2023-04-18T06:04:14.702Z,8.50
2023-04-18T06:07:01.498Z,8.70
2023-04-18T06:09:49.732Z,8.60
2023-04-18T06:12:36.470Z,8.50
2023-04-18T06:15:22.973Z,8.30
2023-04-18T06:18:09.475Z,8.40
2023-04-18T06:20:56.113Z,8.70
2023-04-18T06:23:42.805Z,9.00
2023-04-18T06:26:31.986Z,9.20
2023-04-18T06:29:18.995Z,9.30
2023-04-18T06:32:06.419Z,9.20
2023-04-18T06:34:53.066Z,9.20
2023-04-18T06:37:43.910Z,9.30
2023-04-18T06:40:30.542Z,9.40
2023-04-18T06:43:18.267Z,9.30
2023-04-18T06:46:06.385Z,9.10
2023-04-18T06:48:52.808Z,9.10
2023-04-18T06:51:39.118Z,9.10
2023-04-18T06:54:27.168Z,9.20
2023-04-18T06:57:14.061Z,9.50
2023-04-18T07:00:01.738Z,9.60
2023-04-18T07:02:48.771Z,9.60
2023-04-18T07:05:35.311Z,9.60
2023-04-18T07:08:21.703Z,9.80
2023-04-18T07:11:08.124Z,10.10
2023-04-18T07:13:54.529Z,10.00
2023-04-18T07:16:42.602Z,9.80
2023-04-18T07:19:29.245Z,10.10
2023-04-18T07:22:15.667Z,10.30
2023-04-18T07:25:02.207Z,10.60
2023-04-18T07:27:48.674Z,10.70
2023-04-18T07:30:35.044Z,10.90
2023-04-18T07:33:22.657Z,11.00
2023-04-18T07:36:09.402Z,11.20
2023-04-18T07:38:55.953Z,11.30
2023-04-18T07:41:42.342Z,11.20
2023-04-18T07:44:28.876Z,11.20
2023-04-18T07:47:15.346Z,11.40
2023-04-18T07:50:04.097Z,11.60
2023-04-18T07:52:50.671Z,11.80
2023-04-18T07:55:37.130Z,11.90
2023-04-18T07:58:23.614Z,11.60
2023-04-18T08:01:13.508Z,11.70
2023-04-18T08:04:02.091Z,11.90
2023-04-18T08:06:51.688Z,12.30
2023-04-18T08:09:38.322Z,12.30
2023-04-18T08:12:24.910Z,12.60
2023-04-18T08:15:12.592Z,12.40
2023-04-18T08:17:59.653Z,12.20
2023-04-18T08:20:46.398Z,12.20
2023-04-18T08:23:34.280Z,12.30
2023-04-18T08:26:22.973Z,12.50
2023-04-18T08:29:09.639Z,12.10
2023-04-18T08:31:56.057Z,11.80
2023-04-18T08:34:43.422Z,12.00
2023-04-18T08:37:30.247Z,12.30
2023-04-18T08:40:18.555Z,12.60
2023-04-18T08:43:09.343Z,12.60
2023-04-18T08:46:00.215Z,12.70
2023-04-18T08:48:49.694Z,12.60
2023-04-18T08:51:38.797Z,12.70
2023-04-18T08:54:27.253Z,13.20
2023-04-18T08:57:17.395Z,13.20
2023-04-18T09:00:10.053Z,13.00
2023-04-18T09:02:57.621Z,12.80
2023-04-18T09:05:46.807Z,12.50
2023-04-18T09:08:33.339Z,12.50
2023-04-18T09:11:28.678Z,12.70
2023-04-18T09:14:25.826Z,13.10
2023-04-18T09:17:14.376Z,13.00
2023-04-18T09:20:01.491Z,12.40
2023-04-18T09:22:51.260Z,12.20
2023-04-18T09:25:41.643Z,12.40
2023-04-18T09:28:31.941Z,12.50
2023-04-18T09:31:22.619Z,12.40
2023-04-18T09:34:24.777Z,12.40
2023-04-18T09:37:13.380Z,12.40
2023-04-18T09:39:59.900Z,12.70
2023-04-18T09:42:46.580Z,12.60
2023-04-18T09:45:33.372Z,12.20
2023-04-18T09:48:21.192Z,12.30
2023-04-18T09:51:09.205Z,12.10
2023-04-18T09:53:55.780Z,12.00
2023-04-18T09:56:44.589Z,12.00
2023-04-18T09:59:42.802Z,11.90
2023-04-18T10:02:35.048Z,12.00
2023-04-18T10:05:26.478Z,12.30
2023-04-18T10:08:14.791Z,12.20
2023-04-18T10:11:01.320Z,12.20
2023-04-18T10:13:49.803Z,12.50
2023-04-18T10:16:37.275Z,12.60
2023-04-18T10:19:25.775Z,12.50
2023-04-18T10:22:14.122Z,12.70
2023-04-18T10:25:00.596Z,12.80
2023-04-18T10:27:58.848Z,13.00
2023-04-18T10:31:03.991Z,12.80
2023-04-18T10:34:03.872Z,12.60
2023-04-18T10:37:05.297Z,12.50
2023-04-18T10:39:58.710Z,12.40
2023-04-18T10:43:00.465Z,12.40
2023-04-18T10:46:20.446Z,12.40
2023-04-18T10:49:16.170Z,12.60
2023-04-18T10:52:05.965Z,12.80
2023-04-18T10:54:59.355Z,12.80
2023-04-18T10:57:47.378Z,12.80
2023-04-18T11:00:33.907Z,12.80
2023-04-18T11:03:20.571Z,12.80
2023-04-18T11:06:07.303Z,12.80
2023-04-18T11:09:09.617Z,12.50
2023-04-18T11:12:08.875Z,12.20
2023-04-18T11:14:55.274Z,12.50
2023-04-18T11:17:42.117Z,12.70
2023-04-18T11:20:29.047Z,12.90
2023-04-18T11:23:20.955Z,12.70
2023-04-18T11:26:08.664Z,12.50
2023-04-18T11:28:59.355Z,12.50
2023-04-18T11:31:52.021Z,12.50
2023-04-18T11:34:38.669Z,12.60
2023-04-18T11:37:25.125Z,12.70
2023-04-18T11:40:12.154Z,12.60
2023-04-18T11:43:02.574Z,12.40
2023-04-18T11:45:54.369Z,12.30
2023-04-18T11:48:42.762Z,12.40
2023-04-18T11:51:34.376Z,12.40
2023-04-18T11:54:37.121Z,12.50
2023-04-18T11:57:25.538Z,12.70
2023-04-18T12:00:13.458Z,12.60
2023-04-18T12:03:02.817Z,12.60
2023-04-18T12:05:49.641Z,12.60
2023-04-18T12:08:36.707Z,12.40
2023-04-18T12:11:23.339Z,12.50
2023-04-18T12:14:20.701Z,12.60
2023-04-18T12:17:07.084Z,12.70
2023-04-18T12:19:55.458Z,12.80
2023-04-18T12:22:43.809Z,12.90
2023-04-18T12:25:31.603Z,12.80
2023-04-18T12:28:19.904Z,12.60
2023-04-18T12:31:07.389Z,12.70
2023-04-18T12:33:54.387Z,12.60
2023-04-18T12:36:42.924Z,12.50
2023-04-18T12:39:29.438Z,12.40
2023-04-18T12:42:15.822Z,12.50
2023-04-18T12:45:03.367Z,12.50
2023-04-18T12:47:51.338Z,12.70
2023-04-18T12:50:38.112Z,12.70
2023-04-18T12:53:25.790Z,12.80
2023-04-18T12:56:12.486Z,12.60
2023-04-18T12:58:59.235Z,12.60
2023-04-18T13:01:45.735Z,12.50
2023-04-18T13:04:32.418Z,12.40
2023-04-18T13:07:19.529Z,12.40
2023-04-18T13:10:08.576Z,12.40
2023-04-18T13:12:55.634Z,12.40
2023-04-18T13:15:42.548Z,12.40
2023-04-18T13:18:29.196Z,12.50
2023-04-18T13:21:18.886Z,12.40
2023-04-18T13:24:05.972Z,12.40
2023-04-18T13:26:54.318Z,12.40
2023-04-18T13:29:42.379Z,12.40
2023-04-18T13:32:28.893Z,12.60
2023-04-18T13:35:15.226Z,12.60
2023-04-18T13:38:01.608Z,12.60
2023-04-18T13:40:48.559Z,12.50
2023-04-18T13:43:37.414Z,12.40
2023-04-18T13:46:26.500Z,12.30
2023-04-18T13:49:13.700Z,12.30
2023-04-18T13:52:00.653Z,12.20
2023-04-18T13:54:48.112Z,12.10
2023-04-18T13:57:35.821Z,12.10
2023-04-18T14:00:23.697Z,12.00
2023-04-18T14:03:11.437Z,12.00
2023-04-18T14:05:59.363Z,12.00
2023-04-18T14:08:46.215Z,11.90
2023-04-18T14:11:32.762Z,11.90
2023-04-18T14:14:19.239Z,11.80
2023-04-18T14:17:07.502Z,11.90
2023-04-18T14:19:54.187Z,11.90
2023-04-18T14:22:43.138Z,11.80
2023-04-18T14:25:32.541Z,11.80
2023-04-18T14:28:21.710Z,11.80
2023-04-18T14:31:09.826Z,11.80
2023-04-18T14:33:58.008Z,11.80
2023-04-18T14:36:44.564Z,11.70
2023-04-18T14:39:31.075Z,11.70
2023-04-18T14:42:17.848Z,11.60
2023-04-18T14:45:05.105Z,11.60
2023-04-18T14:47:52.114Z,11.60
2023-04-18T14:50:39.993Z,11.80
2023-04-18T14:53:27.409Z,11.70
2023-04-18T14:56:15.042Z,11.80
2023-04-18T14:59:02.667Z,11.70
2023-04-18T15:01:49.460Z,11.70
2023-04-18T15:04:35.784Z,11.60
2023-04-18T15:07:24.114Z,11.50
2023-04-18T15:10:12.566Z,11.40
2023-04-18T15:12:59.238Z,11.30
2023-04-18T15:15:52.899Z,11.20
2023-04-18T15:18:39.555Z,11.10
2023-04-18T15:21:26.008Z,11.20
2023-04-18T15:24:14.092Z,11.10
2023-04-18T15:27:01.344Z,11.20
2023-04-18T15:29:48.050Z,11.10
2023-04-18T15:32:34.629Z,11.10
2023-04-18T15:35:21.182Z,11.00
2023-04-18T15:38:07.541Z,11.00
2023-04-18T15:40:55.273Z,11.00
2023-04-18T15:43:42.024Z,11.00
2023-04-18T15:46:28.736Z,11.00
2023-04-18T15:49:15.191Z,11.00
2023-04-18T15:52:01.768Z,11.10
2023-04-18T15:54:48.798Z,11.00
2023-04-18T15:57:36.695Z,11.00
2023-04-18T16:00:23.929Z,11.10
2023-04-18T16:03:10.918Z,11.00
2023-04-18T16:05:57.565Z,11.00
2023-04-18T16:08:43.790Z,11.00
2023-04-18T16:11:30.098Z,11.10
2023-04-18T16:14:18.259Z,11.10
2023-04-18T16:17:04.657Z,11.10
2023-04-18T16:19:51.057Z,11.20
2023-04-18T16:22:37.665Z,11.20
2023-04-18T16:25:24.129Z,11.20
2023-04-18T16:28:10.532Z,11.10
2023-04-18T16:30:58.289Z,11.20
2023-04-18T16:33:45.445Z,11.20
2023-04-18T16:36:34.568Z,11.20
2023-04-18T16:39:20.941Z,11.20
2023-04-18T16:42:07.432Z,11.20
2023-04-18T16:44:53.731Z,11.20
2023-04-18T16:47:43.302Z,11.10
2023-04-18T16:50:29.827Z,11.10
2023-04-18T16:53:16.135Z,11.20
2023-04-18T16:56:03.197Z,11.10
2023-04-18T16:58:49.779Z,11.10
2023-04-18T17:01:36.461Z,11.10
2023-04-18T17:04:26.882Z,11.10
2023-04-18T17:07:13.706Z,11.10
2023-04-18T17:10:00.473Z,11.20
2023-04-18T17:12:49.319Z,11.20
2023-04-18T17:15:36.454Z,11.10
2023-04-18T17:18:22.986Z,11.10
2023-04-18T17:21:12.486Z,11.10
2023-04-18T17:24:03.387Z,11.10
2023-04-18T17:26:50.628Z,11.10
2023-04-18T17:29:37.378Z,11.10
2023-04-18T17:32:24.190Z,11.20
2023-04-18T17:35:12.036Z,11.20
2023-04-18T17:37:59.917Z,11.20
2023-04-18T17:40:46.342Z,11.30
2023-04-18T17:43:32.778Z,11.30
2023-04-18T17:46:19.089Z,11.20
2023-04-18T17:49:05.614Z,11.20
2023-04-18T17:51:52.552Z,11.10
2023-04-18T17:54:40.243Z,11.10
2023-04-18T17:57:27.126Z,11.20
2023-04-18T18:00:15.714Z,11.30
2023-04-18T18:03:02.446Z,11.30
2023-04-18T18:05:51.740Z,11.30
2023-04-18T18:08:38.327Z,11.20
2023-04-18T18:11:27.665Z,11.10
2023-04-18T18:14:14.892Z,11.20
2023-04-18T18:17:01.581Z,11.10
2023-04-18T18:19:47.821Z,11.10
2023-04-18T18:22:34.302Z,11.10
2023-04-18T18:25:21.602Z,11.20
2023-04-18T18:28:09.584Z,11.10
2023-04-18T18:30:55.919Z,11.10
2023-04-18T18:33:42.364Z,11.10
2023-04-18T18:36:28.906Z,11.10
2023-04-18T18:39:16.472Z,11.10
2023-04-18T18:42:03.060Z,11.10
2023-04-18T18:44:50.964Z,11.20
2023-04-18T18:47:39.675Z,11.20
2023-04-18T18:50:26.778Z,11.20
2023-04-18T18:53:16.578Z,11.30
2023-04-18T18:56:03.842Z,11.30
2023-04-18T18:58:50.224Z,11.30
2023-04-18T19:01:38.067Z,11.20
2023-04-18T19:04:25.683Z,11.20
2023-04-18T19:07:12.611Z,11.20
2023-04-18T19:10:00.442Z,11.20
2023-04-18T19:12:54.725Z,11.20
2023-04-18T19:15:41.560Z,11.20
2023-04-18T19:18:29.333Z,11.20
2023-04-18T19:21:16.393Z,11.20
2023-04-18T19:24:03.404Z,11.30
2023-04-18T19:26:50.333Z,11.30
2023-04-18T19:29:37.574Z,11.20
2023-04-18T19:32:24.652Z,11.20
2023-04-18T19:35:13.327Z,11.30
2023-04-18T19:38:01.990Z,11.30
2023-04-18T19:40:48.855Z,11.30
2023-04-18T19:43:38.375Z,11.30
2023-04-18T19:46:24.947Z,11.20
2023-04-18T19:49:11.579Z,11.30
2023-04-18T19:51:59.620Z,11.30
2023-04-18T19:54:46.385Z,11.30
2023-04-18T19:57:38.987Z,11.30
2023-04-18T20:00:25.700Z,11.30
2023-04-18T20:03:12.339Z,11.20
2023-04-18T20:05:58.935Z,11.20
2023-04-18T20:08:46.803Z,11.20
2023-04-18T20:11:33.526Z,11.30
2023-04-18T20:14:19.865Z,11.10
2023-04-18T20:17:06.172Z,11.20
2023-04-18T20:19:52.710Z,11.20
2023-04-18T20:22:40.356Z,11.20
2023-04-18T20:25:28.238Z,11.20
2023-04-18T20:28:14.692Z,11.20
2023-04-18T20:31:01.342Z,11.10
2023-04-18T20:33:47.601Z,11.10
2023-04-18T20:36:34.377Z,11.20
2023-04-18T20:39:20.940Z,11.20
2023-04-18T20:42:14.207Z,11.20
2023-04-18T20:45:00.683Z,11.30
2023-04-18T20:47:47.288Z,11.30
2023-04-18T20:50:33.757Z,11.30
2023-04-18T20:53:21.526Z,11.30
2023-04-18T20:56:07.892Z,11.30
2023-04-18T20:58:55.689Z,11.20
2023-04-18T21:01:42.662Z,11.30
2023-04-18T21:04:29.339Z,11.30
2023-04-18T21:07:16.455Z,11.20
2023-04-18T21:10:03.492Z,11.10
2023-04-18T21:12:50.063Z,11.20
2023-04-18T21:15:38.104Z,11.20
2023-04-18T21:18:24.760Z,11.10
2023-04-18T21:21:11.711Z,11.10
2023-04-18T21:23:58.140Z,11.00
2023-04-18T21:26:44.559Z,11.00
2023-04-18T21:29:31.030Z,10.90
2023-04-18T21:32:18.791Z,10.90
2023-04-18T21:35:05.926Z,10.90
2023-04-18T21:37:52.322Z,10.90
2023-04-18T21:40:38.760Z,10.80
2023-04-18T21:43:26.188Z,10.70
2023-04-18T21:46:13.061Z,10.70
2023-04-18T21:49:00.828Z,10.70
2023-04-18T21:51:48.865Z,10.60
2023-04-18T21:54:35.347Z,10.50
2023-04-18T21:57:21.749Z,10.50
2023-04-18T22:00:11.194Z,10.40
2023-04-18T22:02:59.306Z,10.40
2023-04-18T22:05:47.529Z,10.40
2023-04-18T22:08:34.273Z,10.30
2023-04-18T22:11:23.533Z,10.30
2023-04-18T22:14:10.795Z,10.20
2023-04-18T22:16:58.717Z,10.20
2023-04-18T22:19:45.041Z,10.10
2023-04-18T22:22:32.908Z,10.10
2023-04-18T22:25:19.552Z,10.10
2023-04-18T22:28:06.110Z,10.20
2023-04-18T22:30:52.783Z,10.10
2023-04-18T22:33:39.296Z,10.10
2023-04-18T22:36:27.522Z,10.00
2023-04-18T22:39:15.607Z,10.00
2023-04-18T22:42:02.598Z,9.90
2023-04-18T22:44:49.177Z,9.90
2023-04-18T22:47:35.509Z,9.90
2023-04-18T22:50:22.032Z,9.90
2023-04-18T22:53:08.615Z,9.90
2023-04-18T22:55:56.413Z,9.80
2023-04-18T22:58:42.866Z,9.80
2023-04-18T23:01:29.497Z,9.80
2023-04-18T23:04:16.155Z,9.80
2023-04-18T23:07:02.841Z,9.80
2023-04-18T23:09:49.299Z,9.80
2023-04-18T23:12:37.051Z,9.70
2023-04-18T23:15:23.919Z,9.60
2023-04-18T23:18:10.335Z,9.70
2023-04-18T23:20:56.746Z,9.60
2023-04-18T23:23:43.140Z,9.60
2023-04-18T23:26:29.447Z,9.60
2023-04-18T23:29:17.153Z,9.50
2023-04-18T23:32:03.871Z,9.50
2023-04-18T23:34:50.201Z,9.50
2023-04-18T23:37:36.776Z,9.50
2023-04-18T23:40:24.337Z,9.40
2023-04-18T23:43:11.120Z,9.50
2023-04-18T23:45:58.925Z,9.40
2023-04-18T23:48:45.587Z,9.40
2023-04-18T23:51:32.162Z,9.30
2023-04-18T23:54:20.420Z,9.30
2023-04-18T23:57:07.087Z,9.10
2023-04-18T23:59:53.795Z,9.00
